sensor_id;sensor_type;location;lat;lon;timestamp;temperature;humidity
50067;DHT22;35952;52.524;13.340;2022-09-09T00:01:06;15.50;99.90
50067;DHT22;35952;52.524;13.340;2022-09-09T00:03:47;15.50;99.90
50067;DHT22;35952;52.524;13.340;2022-09-09T00:06:42;15.60;99.90
50067;DHT22;35952;52.524;13.340;2022-09-09T00:09:15;15.60;99.90
50067;DHT22;35952;52.524;13.340;2022-09-09T00:14:26;15.40;99.90
50067;DHT22;35952;52.524;13.340;2022-09-09T00:16:56;15.50;99.90
50067;DHT22;35952;52.524;13.340;2022-09-09T00:24:51;15.60;99.90
50067;DHT22;35952;52.524;13.340;2022-09-09T00:27:27;15.50;99.90
50067;DHT22;35952;52.524;13.340;2022-09-09T00:30:00;15.60;99.90
50067;DHT22;35952;52.524;13.340;2022-09-09T00:32:30;15.50;99.90
50067;DHT22;35952;52.524;13.340;2022-09-09T00:35:14;15.40;99.90
50067;DHT22;35952;52.524;13.340;2022-09-09T00:37:42;15.50;99.90
50067;DHT22;35952;52.524;13.340;2022-09-09T00:40:23;15.60;99.90
50067;DHT22;35952;52.524;13.340;2022-09-09T00:59:51;15.50;99.90
50067;DHT22;35952;52.524;13.340;2022-09-09T01:04:54;15.50;99.90
50067;DHT22;35952;52.524;13.340;2022-09-09T01:07:22;15.40;99.90
50067;DHT22;35952;52.524;13.340;2022-09-09T01:09:58;15.30;99.90
50067;DHT22;35952;52.524;13.340;2022-09-09T01:12:49;15.30;99.90
50067;DHT22;35952;52.524;13.340;2022-09-09T01:15:21;15.40;99.90
50067;DHT22;35952;52.524;13.340;2022-09-09T01:17:52;15.40;99.90
50067;DHT22;35952;52.524;13.340;2022-09-09T01:27:04;15.30;99.90
50067;DHT22;35952;52.524;13.340;2022-09-09T01:29:13;15.30;99.90
50067;DHT22;35952;52.524;13.340;2022-09-09T01:32:03;15.20;99.90
50067;DHT22;35952;52.524;13.340;2022-09-09T01:34:35;15.20;99.90
50067;DHT22;35952;52.524;13.340;2022-09-09T01:39:33;15.00;99.90
50067;DHT22;35952;52.524;13.340;2022-09-09T01:42:00;15.10;99.90
50067;DHT22;35952;52.524;13.340;2022-09-09T01:44:27;15.00;99.90
50067;DHT22;35952;52.524;13.340;2022-09-09T01:46:53;14.90;99.90
50067;DHT22;35952;52.524;13.340;2022-09-09T01:49:19;14.90;99.90
50067;DHT22;35952;52.524;13.340;2022-09-09T01:51:48;14.90;99.90
50067;DHT22;35952;52.524;13.340;2022-09-09T01:54:15;14.90;99.90
50067;DHT22;35952;52.524;13.340;2022-09-09T01:56:48;14.90;99.90
50067;DHT22;35952;52.524;13.340;2022-09-09T01:59:48;14.90;99.90
50067;DHT22;35952;52.524;13.340;2022-09-09T02:02:32;14.90;99.90
50067;DHT22;35952;52.524;13.340;2022-09-09T02:05:52;14.90;99.90
50067;DHT22;35952;52.524;13.340;2022-09-09T02:08:16;14.90;99.90
50067;DHT22;35952;52.524;13.340;2022-09-09T02:11:03;14.80;99.90
50067;DHT22;35952;52.524;13.340;2022-09-09T02:13:32;14.80;99.90
50067;DHT22;35952;52.524;13.340;2022-09-09T02:19:06;14.90;99.90
50067;DHT22;35952;52.524;13.340;2022-09-09T02:21:33;14.90;99.90
50067;DHT22;35952;52.524;13.340;2022-09-09T02:24:03;14.90;99.90
50067;DHT22;35952;52.524;13.340;2022-09-09T02:26:31;15.00;99.90
50067;DHT22;35952;52.524;13.340;2022-09-09T02:29:01;15.00;99.90
50067;DHT22;35952;52.524;13.340;2022-09-09T02:31:27;15.10;99.90
50067;DHT22;35952;52.524;13.340;2022-09-09T02:33:58;15.10;99.90
50067;DHT22;35952;52.524;13.340;2022-09-09T02:36:28;15.00;99.90
50067;DHT22;35952;52.524;13.340;2022-09-09T02:38:56;15.00;99.90
50067;DHT22;35952;52.524;13.340;2022-09-09T02:41:31;14.90;99.90
50067;DHT22;35952;52.524;13.340;2022-09-09T02:43:57;14.90;99.90
50067;DHT22;35952;52.524;13.340;2022-09-09T02:46:44;14.90;99.90
50067;DHT22;35952;52.524;13.340;2022-09-09T02:49:20;14.80;99.90
50067;DHT22;35952;52.524;13.340;2022-09-09T02:54:35;14.80;99.90
50067;DHT22;35952;52.524;13.340;2022-09-09T02:57:13;14.70;99.90
50067;DHT22;35952;52.524;13.340;2022-09-09T02:59:40;14.70;99.90
50067;DHT22;35952;52.524;13.340;2022-09-09T03:02:06;14.70;99.90
50067;DHT22;35952;52.524;13.340;2022-09-09T03:04:31;14.70;99.90
50067;DHT22;35952;52.524;13.340;2022-09-09T03:06:58;14.70;99.90
50067;DHT22;35952;52.524;13.340;2022-09-09T03:09:24;14.80;99.90
50067;DHT22;35952;52.524;13.340;2022-09-09T03:11:51;14.90;99.90
50067;DHT22;35952;52.524;13.340;2022-09-09T03:14:17;14.90;99.90
50067;DHT22;35952;52.524;13.340;2022-09-09T03:16:46;14.90;99.90
50067;DHT22;35952;52.524;13.340;2022-09-09T03:19:12;14.80;99.90
50067;DHT22;35952;52.524;13.340;2022-09-09T03:21:37;14.70;99.90
50067;DHT22;35952;52.524;13.340;2022-09-09T03:24:04;14.80;99.90
50067;DHT22;35952;52.524;13.340;2022-09-09T03:26:29;14.80;99.90
50067;DHT22;35952;52.524;13.340;2022-09-09T03:28:56;14.80;99.90
50067;DHT22;35952;52.524;13.340;2022-09-09T03:31:21;14.90;99.90
50067;DHT22;35952;52.524;13.340;2022-09-09T03:33:47;15.00;99.90
50067;DHT22;35952;52.524;13.340;2022-09-09T03:36:14;15.10;99.90
50067;DHT22;35952;52.524;13.340;2022-09-09T03:38:40;15.00;99.90
50067;DHT22;35952;52.524;13.340;2022-09-09T03:41:05;14.90;99.90
50067;DHT22;35952;52.524;13.340;2022-09-09T03:43:31;14.80;99.90
50067;DHT22;35952;52.524;13.340;2022-09-09T03:45:57;14.90;99.90
50067;DHT22;35952;52.524;13.340;2022-09-09T03:48:22;14.90;99.90
50067;DHT22;35952;52.524;13.340;2022-09-09T03:50:50;15.00;99.90
50067;DHT22;35952;52.524;13.340;2022-09-09T03:53:18;14.90;99.90
50067;DHT22;35952;52.524;13.340;2022-09-09T03:55:49;14.90;99.90
50067;DHT22;35952;52.524;13.340;2022-09-09T03:58:16;14.80;99.90
50067;DHT22;35952;52.524;13.340;2022-09-09T04:00:52;14.80;99.90
50067;DHT22;35952;52.524;13.340;2022-09-09T04:03:18;14.90;99.90
50067;DHT22;35952;52.524;13.340;2022-09-09T04:05:43;14.90;99.90
50067;DHT22;35952;52.524;13.340;2022-09-09T04:08:09;14.80;99.90
50067;DHT22;35952;52.524;13.340;2022-09-09T04:10:35;14.90;99.90
50067;DHT22;35952;52.524;13.340;2022-09-09T04:13:03;14.90;99.90
50067;DHT22;35952;52.524;13.340;2022-09-09T04:15:28;15.00;99.90
50067;DHT22;35952;52.524;13.340;2022-09-09T04:17:54;15.00;99.90
50067;DHT22;35952;52.524;13.340;2022-09-09T04:20:20;14.90;99.90
50067;DHT22;35952;52.524;13.340;2022-09-09T04:22:47;14.90;99.90
50067;DHT22;35952;52.524;13.340;2022-09-09T04:25:12;14.90;99.90
50067;DHT22;35952;52.524;13.340;2022-09-09T04:27:38;14.80;99.90
50067;DHT22;35952;52.524;13.340;2022-09-09T04:30:04;14.80;99.90
50067;DHT22;35952;52.524;13.340;2022-09-09T04:32:32;14.70;99.90
50067;DHT22;35952;52.524;13.340;2022-09-09T04:34:58;14.70;99.90
50067;DHT22;35952;52.524;13.340;2022-09-09T04:37:24;14.80;99.90
50067;DHT22;35952;52.524;13.340;2022-09-09T04:39:50;14.80;99.90
50067;DHT22;35952;52.524;13.340;2022-09-09T04:42:16;14.90;99.90
50067;DHT22;35952;52.524;13.340;2022-09-09T04:44:43;14.80;99.90
50067;DHT22;35952;52.524;13.340;2022-09-09T04:47:09;14.80;99.90
50067;DHT22;35952;52.524;13.340;2022-09-09T04:49:35;14.90;99.90
50067;DHT22;35952;52.524;13.340;2022-09-09T04:52:02;14.90;99.90
50067;DHT22;35952;52.524;13.340;2022-09-09T04:54:28;14.90;99.90
50067;DHT22;35952;52.524;13.340;2022-09-09T04:56:54;14.90;99.90
50067;DHT22;35952;52.524;13.340;2022-09-09T04:59:20;14.80;99.90
50067;DHT22;35952;52.524;13.340;2022-09-09T05:01:47;14.90;99.90
50067;DHT22;35952;52.524;13.340;2022-09-09T05:04:12;14.90;99.90
50067;DHT22;35952;52.524;13.340;2022-09-09T05:06:39;14.90;99.90
50067;DHT22;35952;52.524;13.340;2022-09-09T05:09:05;15.10;99.90
50067;DHT22;35952;52.524;13.340;2022-09-09T05:11:32;15.20;99.90
50067;DHT22;35952;52.524;13.340;2022-09-09T05:13:59;15.30;99.90
50067;DHT22;35952;52.524;13.340;2022-09-09T05:16:25;15.30;99.90
50067;DHT22;35952;52.524;13.340;2022-09-09T05:18:51;15.50;99.90
50067;DHT22;35952;52.524;13.340;2022-09-09T05:21:19;15.50;99.90
50067;DHT22;35952;52.524;13.340;2022-09-09T05:23:45;15.60;99.90
50067;DHT22;35952;52.524;13.340;2022-09-09T05:26:19;15.80;99.90
50067;DHT22;35952;52.524;13.340;2022-09-09T05:28:45;15.70;99.90
50067;DHT22;35952;52.524;13.340;2022-09-09T05:31:12;15.50;99.90
50067;DHT22;35952;52.524;13.340;2022-09-09T05:33:40;15.50;99.90
50067;DHT22;35952;52.524;13.340;2022-09-09T05:36:08;15.50;99.90
50067;DHT22;35952;52.524;13.340;2022-09-09T05:38:36;15.50;99.90
50067;DHT22;35952;52.524;13.340;2022-09-09T05:41:02;15.40;99.90
50067;DHT22;35952;52.524;13.340;2022-09-09T05:43:28;15.30;99.90
50067;DHT22;35952;52.524;13.340;2022-09-09T05:46:14;15.50;99.90
50067;DHT22;35952;52.524;13.340;2022-09-09T05:48:45;15.50;99.90
50067;DHT22;35952;52.524;13.340;2022-09-09T05:51:17;15.60;99.90
50067;DHT22;35952;52.524;13.340;2022-09-09T05:53:44;15.60;99.90
50067;DHT22;35952;52.524;13.340;2022-09-09T05:56:12;15.80;99.90
50067;DHT22;35952;52.524;13.340;2022-09-09T05:58:39;16.10;99.90
50067;DHT22;35952;52.524;13.340;2022-09-09T06:01:07;16.50;99.90
50067;DHT22;35952;52.524;13.340;2022-09-09T06:03:39;16.70;99.90
50067;DHT22;35952;52.524;13.340;2022-09-09T06:06:06;16.50;99.90
50067;DHT22;35952;52.524;13.340;2022-09-09T06:08:36;16.40;99.90
50067;DHT22;35952;52.524;13.340;2022-09-09T06:11:05;16.10;99.90
50067;DHT22;35952;52.524;13.340;2022-09-09T06:13:31;16.30;99.90
50067;DHT22;35952;52.524;13.340;2022-09-09T06:15:57;16.20;99.90
50067;DHT22;35952;52.524;13.340;2022-09-09T06:18:23;16.20;99.90
50067;DHT22;35952;52.524;13.340;2022-09-09T06:20:57;16.30;99.90
50067;DHT22;35952;52.524;13.340;2022-09-09T06:23:24;16.40;99.90
50067;DHT22;35952;52.524;13.340;2022-09-09T06:25:50;16.50;99.90
50067;DHT22;35952;52.524;13.340;2022-09-09T06:28:16;16.60;99.90
50067;DHT22;35952;52.524;13.340;2022-09-09T06:30:42;16.40;99.90
50067;DHT22;35952;52.524;13.340;2022-09-09T06:33:08;16.40;99.90
50067;DHT22;35952;52.524;13.340;2022-09-09T06:35:34;16.70;99.90
50067;DHT22;35952;52.524;13.340;2022-09-09T06:38:00;16.80;99.90
50067;DHT22;35952;52.524;13.340;2022-09-09T06:40:25;16.90;99.90
50067;DHT22;35952;52.524;13.340;2022-09-09T06:42:51;16.90;99.90
50067;DHT22;35952;52.524;13.340;2022-09-09T06:45:16;17.10;99.90
50067;DHT22;35952;52.524;13.340;2022-09-09T06:47:43;16.90;99.90
50067;DHT22;35952;52.524;13.340;2022-09-09T06:50:09;17.10;99.90
50067;DHT22;35952;52.524;13.340;2022-09-09T06:52:35;17.00;99.90
50067;DHT22;35952;52.524;13.340;2022-09-09T06:55:01;16.80;99.90
50067;DHT22;35952;52.524;13.340;2022-09-09T06:57:27;17.20;99.90
50067;DHT22;35952;52.524;13.340;2022-09-09T06:59:53;17.40;99.90
50067;DHT22;35952;52.524;13.340;2022-09-09T07:02:19;17.60;99.90
50067;DHT22;35952;52.524;13.340;2022-09-09T07:04:44;18.10;99.90
50067;DHT22;35952;52.524;13.340;2022-09-09T07:07:10;18.50;99.90
50067;DHT22;35952;52.524;13.340;2022-09-09T07:09:37;18.60;99.90
50067;DHT22;35952;52.524;13.340;2022-09-09T07:12:03;18.80;99.90
50067;DHT22;35952;52.524;13.340;2022-09-09T07:14:31;19.10;99.90
50067;DHT22;35952;52.524;13.340;2022-09-09T07:16:56;19.30;99.90
50067;DHT22;35952;52.524;13.340;2022-09-09T07:19:22;19.70;99.90
50067;DHT22;35952;52.524;13.340;2022-09-09T07:21:48;20.10;99.90
50067;DHT22;35952;52.524;13.340;2022-09-09T07:24:14;20.20;99.90
50067;DHT22;35952;52.524;13.340;2022-09-09T07:26:39;20.50;99.90
50067;DHT22;35952;52.524;13.340;2022-09-09T07:29:06;20.60;99.90
50067;DHT22;35952;52.524;13.340;2022-09-09T07:31:34;20.00;99.90
50067;DHT22;35952;52.524;13.340;2022-09-09T07:34:01;20.00;99.90
50067;DHT22;35952;52.524;13.340;2022-09-09T07:36:29;20.20;99.90
50067;DHT22;35952;52.524;13.340;2022-09-09T07:38:57;20.60;99.90
50067;DHT22;35952;52.524;13.340;2022-09-09T07:41:32;20.10;99.90
50067;DHT22;35952;52.524;13.340;2022-09-09T07:43:59;20.50;99.90
50067;DHT22;35952;52.524;13.340;2022-09-09T07:46:28;21.40;99.90
50067;DHT22;35952;52.524;13.340;2022-09-09T07:48:56;21.60;99.90
50067;DHT22;35952;52.524;13.340;2022-09-09T07:51:27;22.10;99.90
50067;DHT22;35952;52.524;13.340;2022-09-09T07:54:01;22.10;99.90
50067;DHT22;35952;52.524;13.340;2022-09-09T07:56:28;22.30;99.90
50067;DHT22;35952;52.524;13.340;2022-09-09T07:58:55;22.40;99.90
50067;DHT22;35952;52.524;13.340;2022-09-09T08:01:25;22.50;99.90
50067;DHT22;35952;52.524;13.340;2022-09-09T08:04:01;22.60;99.90
50067;DHT22;35952;52.524;13.340;2022-09-09T08:06:29;22.90;99.90
50067;DHT22;35952;52.524;13.340;2022-09-09T08:08:55;22.90;99.90
50067;DHT22;35952;52.524;13.340;2022-09-09T08:11:22;22.60;99.90
50067;DHT22;35952;52.524;13.340;2022-09-09T08:13:49;22.80;99.90
50067;DHT22;35952;52.524;13.340;2022-09-09T08:16:23;23.10;99.90
50067;DHT22;35952;52.524;13.340;2022-09-09T08:18:50;23.20;99.90
50067;DHT22;35952;52.524;13.340;2022-09-09T08:21:22;23.50;99.90
50067;DHT22;35952;52.524;13.340;2022-09-09T08:23:51;23.80;99.90
50067;DHT22;35952;52.524;13.340;2022-09-09T08:26:19;23.70;99.90
50067;DHT22;35952;52.524;13.340;2022-09-09T08:28:52;24.00;99.90
50067;DHT22;35952;52.524;13.340;2022-09-09T08:31:23;23.20;99.90
50067;DHT22;35952;52.524;13.340;2022-09-09T08:33:49;23.20;99.90
50067;DHT22;35952;52.524;13.340;2022-09-09T08:36:18;23.90;99.90
50067;DHT22;35952;52.524;13.340;2022-09-09T08:38:46;23.90;99.90
50067;DHT22;35952;52.524;13.340;2022-09-09T08:47:20;23.00;99.90
50067;DHT22;35952;52.524;13.340;2022-09-09T08:50:15;22.30;99.90
50067;DHT22;35952;52.524;13.340;2022-09-09T08:53:05;21.80;99.90
50067;DHT22;35952;52.524;13.340;2022-09-09T08:55:51;21.70;99.90
50067;DHT22;35952;52.524;13.340;2022-09-09T08:58:25;21.20;99.90
50067;DHT22;35952;52.524;13.340;2022-09-09T09:06:35;20.80;99.90
50067;DHT22;35952;52.524;13.340;2022-09-09T09:12:20;20.60;99.90
50067;DHT22;35952;52.524;13.340;2022-09-09T09:14:47;20.30;99.90
50067;DHT22;35952;52.524;13.340;2022-09-09T09:17:17;20.50;99.90
50067;DHT22;35952;52.524;13.340;2022-09-09T09:19:44;20.80;99.90
50067;DHT22;35952;52.524;13.340;2022-09-09T09:25:15;21.60;99.90
50067;DHT22;35952;52.524;13.340;2022-09-09T09:30:31;22.30;99.90
50067;DHT22;35952;52.524;13.340;2022-09-09T09:33:03;22.70;99.90
50067;DHT22;35952;52.524;13.340;2022-09-09T09:35:31;22.80;99.90
50067;DHT22;35952;52.524;13.340;2022-09-09T09:37:56;23.20;99.90
50067;DHT22;35952;52.524;13.340;2022-09-09T09:40:22;23.40;99.90
50067;DHT22;35952;52.524;13.340;2022-09-09T09:43:01;23.30;99.90
50067;DHT22;35952;52.524;13.340;2022-09-09T09:45:34;23.50;99.90
50067;DHT22;35952;52.524;13.340;2022-09-09T09:48:05;23.50;99.90
50067;DHT22;35952;52.524;13.340;2022-09-09T09:50:32;23.70;99.90
50067;DHT22;35952;52.524;13.340;2022-09-09T09:53:03;24.00;99.90
50067;DHT22;35952;52.524;13.340;2022-09-09T09:55:32;24.00;99.90
50067;DHT22;35952;52.524;13.340;2022-09-09T09:58:06;23.90;99.90
50067;DHT22;35952;52.524;13.340;2022-09-09T10:00:33;24.20;99.90
50067;DHT22;35952;52.524;13.340;2022-09-09T10:03:00;24.40;99.90
50067;DHT22;35952;52.524;13.340;2022-09-09T10:05:28;24.20;99.90
50067;DHT22;35952;52.524;13.340;2022-09-09T10:08:12;24.30;99.90
50067;DHT22;35952;52.524;13.340;2022-09-09T10:10:46;23.50;99.90
50067;DHT22;35952;52.524;13.340;2022-09-09T10:16:17;22.80;99.90
50067;DHT22;35952;52.524;13.340;2022-09-09T10:19:01;23.00;99.90
50067;DHT22;35952;52.524;13.340;2022-09-09T10:21:31;23.10;99.90
50067;DHT22;35952;52.524;13.340;2022-09-09T10:24:25;23.30;99.90
50067;DHT22;35952;52.524;13.340;2022-09-09T10:27:15;23.40;99.90
50067;DHT22;35952;52.524;13.340;2022-09-09T10:29:47;23.60;99.90
50067;DHT22;35952;52.524;13.340;2022-09-09T10:32:37;23.70;99.90
50067;DHT22;35952;52.524;13.340;2022-09-09T10:35:27;23.50;99.90
50067;DHT22;35952;52.524;13.340;2022-09-09T10:46:06;22.50;99.90
50067;DHT22;35952;52.524;13.340;2022-09-09T10:48:55;22.70;99.90
50067;DHT22;35952;52.524;13.340;2022-09-09T10:51:23;22.80;99.90
50067;DHT22;35952;52.524;13.340;2022-09-09T10:53:53;22.60;99.90
50067;DHT22;35952;52.524;13.340;2022-09-09T10:56:23;23.10;99.90
50067;DHT22;35952;52.524;13.340;2022-09-09T10:59:00;23.30;99.90
50067;DHT22;35952;52.524;13.340;2022-09-09T11:01:38;23.40;99.90
50067;DHT22;35952;52.524;13.340;2022-09-09T11:04:13;23.90;99.90
50067;DHT22;35952;52.524;13.340;2022-09-09T11:06:44;23.90;99.90
50067;DHT22;35952;52.524;13.340;2022-09-09T11:09:17;24.00;99.90
50067;DHT22;35952;52.524;13.340;2022-09-09T11:11:52;23.50;99.90
50067;DHT22;35952;52.524;13.340;2022-09-09T11:14:41;23.30;99.90
50067;DHT22;35952;52.524;13.340;2022-09-09T11:17:20;23.20;99.90
50067;DHT22;35952;52.524;13.340;2022-09-09T11:19:47;23.30;99.90
50067;DHT22;35952;52.524;13.340;2022-09-09T11:22:44;23.90;99.90
50067;DHT22;35952;52.524;13.340;2022-09-09T11:25:23;24.60;99.90
50067;DHT22;35952;52.524;13.340;2022-09-09T11:30:26;24.70;99.90
50067;DHT22;35952;52.524;13.340;2022-09-09T11:41:40;24.20;99.90
50067;DHT22;35952;52.524;13.340;2022-09-09T11:44:11;23.80;99.90
50067;DHT22;35952;52.524;13.340;2022-09-09T11:46:38;23.50;99.90
50067;DHT22;35952;52.524;13.340;2022-09-09T11:49:06;23.40;99.90
50067;DHT22;35952;52.524;13.340;2022-09-09T11:51:49;23.40;99.90
50067;DHT22;35952;52.524;13.340;2022-09-09T11:54:28;23.10;99.90
50067;DHT22;35952;52.524;13.340;2022-09-09T11:56:54;23.70;99.90
50067;DHT22;35952;52.524;13.340;2022-09-09T11:59:28;24.20;99.90
50067;DHT22;35952;52.524;13.340;2022-09-09T12:09:47;24.80;99.90
50067;DHT22;35952;52.524;13.340;2022-09-09T12:12:32;24.70;99.90
50067;DHT22;35952;52.524;13.340;2022-09-09T12:17:44;24.80;99.90
50067;DHT22;35952;52.524;13.340;2022-09-09T12:20:20;24.80;99.90
50067;DHT22;35952;52.524;13.340;2022-09-09T12:23:08;25.00;99.90
50067;DHT22;35952;52.524;13.340;2022-09-09T12:28:27;24.80;99.90
50067;DHT22;35952;52.524;13.340;2022-09-09T12:31:14;24.90;99.40
50067;DHT22;35952;52.524;13.340;2022-09-09T12:33:44;24.50;99.90
50067;DHT22;35952;52.524;13.340;2022-09-09T12:36:28;24.40;99.90
50067;DHT22;35952;52.524;13.340;2022-09-09T12:38:55;24.20;99.90
50067;DHT22;35952;52.524;13.340;2022-09-09T12:41:26;23.80;99.90
50067;DHT22;35952;52.524;13.340;2022-09-09T12:44:03;23.80;99.90
50067;DHT22;35952;52.524;13.340;2022-09-09T12:46:34;23.90;99.90
50067;DHT22;35952;52.524;13.340;2022-09-09T12:49:02;23.70;99.90
50067;DHT22;35952;52.524;13.340;2022-09-09T12:51:30;23.40;99.90
50067;DHT22;35952;52.524;13.340;2022-09-09T12:53:58;23.40;99.90
50067;DHT22;35952;52.524;13.340;2022-09-09T12:56:27;23.40;99.90
50067;DHT22;35952;52.524;13.340;2022-09-09T12:58:56;23.20;98.70
50067;DHT22;35952;52.524;13.340;2022-09-09T13:01:31;23.10;99.90
50067;DHT22;35952;52.524;13.340;2022-09-09T13:03:57;23.30;99.20
50067;DHT22;35952;52.524;13.340;2022-09-09T13:06:27;23.20;99.40
50067;DHT22;35952;52.524;13.340;2022-09-09T13:08:55;22.90;99.60
50067;DHT22;35952;52.524;13.340;2022-09-09T13:11:28;22.90;99.60
50067;DHT22;35952;52.524;13.340;2022-09-09T13:13:56;22.90;99.90
50067;DHT22;35952;52.524;13.340;2022-09-09T13:16:26;22.90;99.90
50067;DHT22;35952;52.524;13.340;2022-09-09T13:18:55;22.90;99.90
50067;DHT22;35952;52.524;13.340;2022-09-09T13:21:31;23.00;99.80
50067;DHT22;35952;52.524;13.340;2022-09-09T13:23:57;23.00;99.90
50067;DHT22;35952;52.524;13.340;2022-09-09T13:26:28;23.00;99.90
50067;DHT22;35952;52.524;13.340;2022-09-09T13:29:15;22.80;99.90
50067;DHT22;35952;52.524;13.340;2022-09-09T13:31:43;22.60;99.90
50067;DHT22;35952;52.524;13.340;2022-09-09T13:39:52;22.40;99.90
50067;DHT22;35952;52.524;13.340;2022-09-09T13:42:28;22.30;99.90
50067;DHT22;35952;52.524;13.340;2022-09-09T13:44:55;22.40;99.90
50067;DHT22;35952;52.524;13.340;2022-09-09T13:47:33;22.40;99.90
50067;DHT22;35952;52.524;13.340;2022-09-09T13:50:21;22.50;99.90
50067;DHT22;35952;52.524;13.340;2022-09-09T13:52:50;22.70;99.90
50067;DHT22;35952;52.524;13.340;2022-09-09T13:55:19;23.30;99.90
50067;DHT22;35952;52.524;13.340;2022-09-09T14:00:22;23.70;99.90
50067;DHT22;35952;52.524;13.340;2022-09-09T14:02:48;23.80;99.90
50067;DHT22;35952;52.524;13.340;2022-09-09T14:05:14;24.00;99.90
50067;DHT22;35952;52.524;13.340;2022-09-09T14:07:41;24.00;99.90
50067;DHT22;35952;52.524;13.340;2022-09-09T14:10:07;24.10;99.90
50067;DHT22;35952;52.524;13.340;2022-09-09T14:12:33;24.20;99.90
50067;DHT22;35952;52.524;13.340;2022-09-09T14:14:58;24.00;99.20
50067;DHT22;35952;52.524;13.340;2022-09-09T14:17:25;24.00;99.50
50067;DHT22;35952;52.524;13.340;2022-09-09T14:19:54;23.70;97.80
50067;DHT22;35952;52.524;13.340;2022-09-09T14:22:20;23.80;97.40
50067;DHT22;35952;52.524;13.340;2022-09-09T14:24:45;24.00;98.60
50067;DHT22;35952;52.524;13.340;2022-09-09T14:27:11;24.10;98.90
50067;DHT22;35952;52.524;13.340;2022-09-09T14:29:37;24.20;98.60
50067;DHT22;35952;52.524;13.340;2022-09-09T14:32:02;23.80;98.10
50067;DHT22;35952;52.524;13.340;2022-09-09T14:34:28;23.50;99.20
50067;DHT22;35952;52.524;13.340;2022-09-09T14:36:54;23.50;99.50
50067;DHT22;35952;52.524;13.340;2022-09-09T14:39:19;23.60;99.90
50067;DHT22;35952;52.524;13.340;2022-09-09T14:41:45;23.80;98.30
50067;DHT22;35952;52.524;13.340;2022-09-09T14:44:11;23.80;98.20
50067;DHT22;35952;52.524;13.340;2022-09-09T14:46:36;23.80;98.30
50067;DHT22;35952;52.524;13.340;2022-09-09T14:49:02;23.70;97.70
50067;DHT22;35952;52.524;13.340;2022-09-09T14:51:28;23.60;98.20
50067;DHT22;35952;52.524;13.340;2022-09-09T14:53:58;23.30;98.70
50067;DHT22;35952;52.524;13.340;2022-09-09T14:56:26;23.20;98.60
50067;DHT22;35952;52.524;13.340;2022-09-09T14:58:54;23.20;98.70
50067;DHT22;35952;52.524;13.340;2022-09-09T15:01:21;23.20;98.60
50067;DHT22;35952;52.524;13.340;2022-09-09T15:03:52;23.10;98.80
50067;DHT22;35952;52.524;13.340;2022-09-09T15:06:19;22.80;98.40
50067;DHT22;35952;52.524;13.340;2022-09-09T15:08:46;22.90;99.80
50067;DHT22;35952;52.524;13.340;2022-09-09T15:11:13;23.00;99.20
50067;DHT22;35952;52.524;13.340;2022-09-09T15:13:40;22.80;99.20
50067;DHT22;35952;52.524;13.340;2022-09-09T15:16:09;22.80;99.90
50067;DHT22;35952;52.524;13.340;2022-09-09T15:18:35;22.70;99.90
50067;DHT22;35952;52.524;13.340;2022-09-09T15:21:04;22.70;99.90
50067;DHT22;35952;52.524;13.340;2022-09-09T15:23:34;22.70;99.90
50067;DHT22;35952;52.524;13.340;2022-09-09T15:25:59;22.70;99.90
50067;DHT22;35952;52.524;13.340;2022-09-09T15:28:25;22.70;99.90
50067;DHT22;35952;52.524;13.340;2022-09-09T15:30:52;22.70;99.90
50067;DHT22;35952;52.524;13.340;2022-09-09T15:33:19;22.60;99.90
50067;DHT22;35952;52.524;13.340;2022-09-09T15:35:45;22.50;99.90
50067;DHT22;35952;52.524;13.340;2022-09-09T15:38:11;22.60;99.90
50067;DHT22;35952;52.524;13.340;2022-09-09T15:40:41;22.60;99.90
50067;DHT22;35952;52.524;13.340;2022-09-09T15:43:08;22.40;99.90
50067;DHT22;35952;52.524;13.340;2022-09-09T15:45:35;22.30;99.90
50067;DHT22;35952;52.524;13.340;2022-09-09T15:48:01;22.20;99.90
50067;DHT22;35952;52.524;13.340;2022-09-09T15:50:27;22.20;99.90
50067;DHT22;35952;52.524;13.340;2022-09-09T15:52:54;22.10;99.90
50067;DHT22;35952;52.524;13.340;2022-09-09T15:55:20;22.10;99.90
50067;DHT22;35952;52.524;13.340;2022-09-09T15:57:46;22.10;99.90
50067;DHT22;35952;52.524;13.340;2022-09-09T16:00:12;22.00;99.90
50067;DHT22;35952;52.524;13.340;2022-09-09T16:02:39;22.00;99.90
50067;DHT22;35952;52.524;13.340;2022-09-09T16:05:05;21.90;99.90
50067;DHT22;35952;52.524;13.340;2022-09-09T16:07:31;21.90;99.90
50067;DHT22;35952;52.524;13.340;2022-09-09T16:09:57;21.90;99.90
50067;DHT22;35952;52.524;13.340;2022-09-09T16:12:22;21.80;99.90
50067;DHT22;35952;52.524;13.340;2022-09-09T16:14:47;21.80;99.90
50067;DHT22;35952;52.524;13.340;2022-09-09T16:17:13;21.90;99.90
50067;DHT22;35952;52.524;13.340;2022-09-09T16:19:40;21.90;99.90
50067;DHT22;35952;52.524;13.340;2022-09-09T16:22:09;21.90;99.90
50067;DHT22;35952;52.524;13.340;2022-09-09T16:24:34;21.90;99.90
50067;DHT22;35952;52.524;13.340;2022-09-09T16:27:00;21.80;99.90
50067;DHT22;35952;52.524;13.340;2022-09-09T16:29:25;21.90;99.90
50067;DHT22;35952;52.524;13.340;2022-09-09T16:31:53;21.80;99.90
50067;DHT22;35952;52.524;13.340;2022-09-09T16:34:19;21.70;99.90
50067;DHT22;35952;52.524;13.340;2022-09-09T16:36:46;21.70;99.90
50067;DHT22;35952;52.524;13.340;2022-09-09T16:39:17;21.70;99.90
50067;DHT22;35952;52.524;13.340;2022-09-09T16:41:45;21.70;99.90
50067;DHT22;35952;52.524;13.340;2022-09-09T16:44:12;21.70;99.90
50067;DHT22;35952;52.524;13.340;2022-09-09T16:46:40;21.60;99.90
50067;DHT22;35952;52.524;13.340;2022-09-09T16:49:08;21.60;99.90
50067;DHT22;35952;52.524;13.340;2022-09-09T16:51:40;21.60;99.90
50067;DHT22;35952;52.524;13.340;2022-09-09T16:54:07;21.60;99.90
50067;DHT22;35952;52.524;13.340;2022-09-09T16:56:36;21.60;99.90
50067;DHT22;35952;52.524;13.340;2022-09-09T16:59:07;21.50;99.90
50067;DHT22;35952;52.524;13.340;2022-09-09T17:01:36;21.50;99.90
50067;DHT22;35952;52.524;13.340;2022-09-09T17:04:06;21.50;99.90
50067;DHT22;35952;52.524;13.340;2022-09-09T17:06:33;21.40;99.90
50067;DHT22;35952;52.524;13.340;2022-09-09T17:09:01;21.30;99.90
50067;DHT22;35952;52.524;13.340;2022-09-09T17:11:28;21.30;99.90
50067;DHT22;35952;52.524;13.340;2022-09-09T17:13:56;21.20;99.90
50067;DHT22;35952;52.524;13.340;2022-09-09T17:16:24;21.10;99.90
50067;DHT22;35952;52.524;13.340;2022-09-09T17:18:52;21.10;99.90